Time;durP1;ratioP1;P1;durP2;ratioP2;P2;SDS_P1;SDS_P2;PMS_P1;PMS_P2;Temp;Humidity;BMP_temperature;BMP_pressure;BME280_temperature;BME280_humidity;BME280_pressure;Samples;Min_cycle;Max_cycle;Signal;HPM_P1;HPM_P2
2021/05/05 00:01:49;;;;;;;2.10;0.20;;;;;;;11.93;63.25;99206.22;4899843;28;98045;-62
2021/05/05 00:04:15;;;;;;;1.55;0.20;;;;;;;11.93;63.32;99205.41;4898373;28;99110;-62
2021/05/05 00:06:41;;;;;;;1.67;0.20;;;;;;;11.93;62.92;99211.59;4899481;28;128070;-63
2021/05/05 00:09:08;;;;;;;1.10;0.10;;;;;;;11.92;63.25;99209.22;4900321;28;103213;-60
2021/05/05 00:11:34;;;;;;;0.75;0.10;;;;;;;11.89;63.27;99202.53;4917270;28;124267;-60
2021/05/05 00:14:00;;;;;;;2.40;0.17;;;;;;;11.88;62.99;99200.13;4898234;28;126391;-60
2021/05/05 00:16:26;;;;;;;1.42;0.10;;;;;;;11.88;63.42;99198.22;4898977;28;128160;-60
2021/05/05 00:18:52;;;;;;;0.63;0.10;;;;;;;11.87;63.31;99196.66;4900664;28;98690;-62
2021/05/05 00:21:18;;;;;;;1.45;0.10;;;;;;;11.87;63.26;99195.81;4898996;28;121334;-60
2021/05/05 00:23:44;;;;;;;1.15;0.10;;;;;;;11.85;63.12;99192.66;4899995;28;98944;-63
2021/05/05 00:26:10;;;;;;;0.90;0.10;;;;;;;11.84;63.48;99196.47;4900056;28;98602;-60
2021/05/05 00:28:36;;;;;;;1.38;0.13;;;;;;;11.83;63.57;99205.59;4880844;28;127644;-62
2021/05/05 00:31:02;;;;;;;0.88;0.10;;;;;;;11.82;63.57;99191.31;4889768;28;122403;-59
2021/05/05 00:33:28;;;;;;;0.60;0.10;;;;;;;11.79;63.46;99200.84;4900359;28;128028;-59
2021/05/05 00:35:54;;;;;;;1.10;0.10;;;;;;;11.80;63.67;99197.03;4899367;28;128589;-60
2021/05/05 00:38:20;;;;;;;1.20;0.10;;;;;;;11.81;63.78;99211.31;4899604;28;128140;-62
2021/05/05 00:40:47;;;;;;;0.80;0.10;;;;;;;11.78;63.78;99203.81;4899472;28;123619;-59
2021/05/05 00:43:13;;;;;;;0.63;0.10;;;;;;;11.78;63.55;99203.81;4900755;28;98734;-62
2021/05/05 00:45:39;;;;;;;1.33;0.10;;;;;;;11.78;63.94;99206.53;4898676;28;128100;-60
2021/05/05 00:48:06;;;;;;;1.02;0.20;;;;;;;11.75;63.89;99204.44;4900057;28;114847;-62
2021/05/05 00:50:32;;;;;;;1.45;0.17;;;;;;;11.75;63.63;99202.56;4901852;28;97907;-62
2021/05/05 00:52:58;;;;;;;1.05;0.15;;;;;;;11.73;63.58;99188.56;4902348;28;127100;-60
2021/05/05 00:55:24;;;;;;;1.48;0.20;;;;;;;11.74;64.04;99194.75;4902196;28;128508;-59
2021/05/05 00:57:50;;;;;;;1.02;0.20;;;;;;;11.70;63.80;99194.56;4902550;28;126961;-60
2021/05/05 01:00:21;;;;;;;0.88;0.10;;;;;;;11.73;63.88;99193.94;4901378;28;98475;-62
2021/05/05 01:02:47;;;;;;;0.50;0.10;;;;;;;11.80;63.61;99190.84;4903002;28;102626;-62
2021/05/05 01:05:14;;;;;;;1.42;0.20;;;;;;;11.86;63.49;99191.53;4901854;28;98421;-62
2021/05/05 01:07:40;;;;;;;1.55;0.10;;;;;;;11.92;63.47;99179.53;4901950;28;97988;-63
2021/05/05 01:10:09;;;;;;;0.63;0.10;;;;;;;11.89;63.05;99178.22;4902152;28;122991;-60
2021/05/05 01:12:35;;;;;;;1.10;0.20;;;;;;;11.91;63.04;99189.53;4903176;28;102596;-62
2021/05/05 01:15:01;;;;;;;1.85;0.20;;;;;;;11.90;63.23;99187.91;4902591;28;127308;-60
2021/05/05 01:17:29;;;;;;;2.05;0.10;;;;;;;11.93;62.90;99179.19;4902218;28;127386;-60
2021/05/05 01:19:55;;;;;;;1.05;0.10;;;;;;;11.94;63.34;99183.50;4903529;28;97742;-63
2021/05/05 01:22:21;;;;;;;1.77;0.20;;;;;;;11.89;63.10;99172.81;4901509;28;127846;-59
2021/05/05 01:24:47;;;;;;;1.20;0.10;;;;;;;11.90;63.19;99170.91;4903328;28;127995;-63
2021/05/05 01:27:13;;;;;;;1.10;0.10;;;;;;;11.93;63.40;99178.41;4902532;28;98108;-59
2021/05/05 01:29:39;;;;;;;1.67;0.20;;;;;;;11.91;63.24;99175.22;4903155;28;97866;-63
2021/05/05 01:32:06;;;;;;;1.80;0.20;;;;;;;11.89;63.19;99185.53;4901739;28;128025;-59
2021/05/05 01:34:35;;;;;;;1.83;0.28;;;;;;;11.89;63.60;99177.44;4902915;28;123536;-59
2021/05/05 01:37:02;;;;;;;1.08;0.10;;;;;;;11.88;63.26;99186.63;4901709;28;123685;-59
2021/05/05 01:39:28;;;;;;;0.60;0.15;;;;;;;11.85;62.56;99179.16;4902975;28;97982;-63
2021/05/05 01:41:54;;;;;;;1.92;0.20;;;;;;;11.83;63.44;99187.56;4902998;28;98239;-59
2021/05/05 01:44:35;;;;;;;1.30;0.13;;;;;;;11.81;63.42;99184.31;4902485;28;120077;-59
2021/05/05 01:47:02;;;;;;;1.67;0.20;;;;;;;11.83;63.55;99176.75;4901782;28;120160;-59
2021/05/05 01:49:28;;;;;;;0.80;0.20;;;;;;;11.80;63.42;99171.94;4903328;28;97938;-59
2021/05/05 01:52:01;;;;;;;1.52;0.38;;;;;;;11.79;63.38;99171.16;4915361;28;126351;-62
2021/05/05 01:54:27;;;;;;;1.23;0.20;;;;;;;11.77;63.46;99167.94;4902295;28;98779;-63
2021/05/05 01:56:53;;;;;;;0.77;0.17;;;;;;;11.76;63.30;99169.06;4901643;28;117060;-62
2021/05/05 01:59:19;;;;;;;0.75;0.20;;;;;;;11.74;63.15;99159.66;4902641;28;98079;-63
2021/05/05 02:01:45;;;;;;;2.88;0.20;;;;;;;11.73;63.15;99156.16;4899596;28;128375;-60
2021/05/05 02:04:11;;;;;;;1.02;0.20;;;;;;;11.71;63.29;99152.97;4902642;28;99496;-59
2021/05/05 02:06:37;;;;;;;1.60;0.20;;;;;;;11.71;63.15;99149.47;4901053;28;119937;-63
2021/05/05 02:09:04;;;;;;;2.13;0.20;;;;;;;11.69;63.20;99157.88;4902453;28;99614;-59
2021/05/05 02:11:31;;;;;;;1.00;0.20;;;;;;;11.68;63.72;99153.59;4902082;28;97949;-62
2021/05/05 02:13:57;;;;;;;3.35;0.20;;;;;;;11.67;63.76;99149.31;4902111;28;97914;-59
2021/05/05 02:16:23;;;;;;;1.10;0.30;;;;;;;11.67;63.11;99154.69;4900907;28;120700;-63
2021/05/05 02:18:49;;;;;;;2.15;0.20;;;;;;;11.64;63.66;99141.81;4902019;28;104837;-59
2021/05/05 02:21:16;;;;;;;0.73;0.20;;;;;;;11.64;63.76;99139.09;4901795;28;113690;-59
2021/05/05 02:23:42;;;;;;;1.60;0.30;;;;;;;11.60;63.25;99132.72;4901668;28;127434;-59
2021/05/05 02:26:08;;;;;;;1.73;0.20;;;;;;;11.59;63.09;99139.22;4900969;28;126727;-63
2021/05/05 02:28:34;;;;;;;1.23;0.20;;;;;;;11.58;63.07;99136.81;4901720;28;122853;-63
2021/05/05 02:31:00;;;;;;;1.85;0.22;;;;;;;11.59;63.04;99135.72;4901214;28;127691;-59
2021/05/05 02:33:27;;;;;;;1.92;0.20;;;;;;;11.56;63.29;99137.16;4902562;28;97873;-63
2021/05/05 02:35:53;;;;;;;1.67;0.30;;;;;;;11.57;63.43;99135.25;4901685;28;98829;-59
2021/05/05 02:38:19;;;;;;;1.73;0.20;;;;;;;11.55;63.36;99135.53;4902091;28;97859;-60
2021/05/05 02:40:46;;;;;;;1.52;0.28;;;;;;;11.54;63.20;99131.25;4901851;28;98649;-64
2021/05/05 02:43:13;;;;;;;1.15;0.20;;;;;;;11.54;63.47;99133.94;4902074;28;115872;-59
2021/05/05 02:45:39;;;;;;;2.65;0.25;;;;;;;11.54;63.19;99128.53;4900870;28;117558;-62
2021/05/05 02:48:05;;;;;;;2.70;0.38;;;;;;;11.53;63.23;99132.34;4900702;28;118251;-59
2021/05/05 02:50:31;;;;;;;1.90;0.20;;;;;;;11.52;63.42;99128.84;4901885;28;97975;-59
2021/05/05 02:52:57;;;;;;;2.05;0.30;;;;;;;11.49;63.36;99136.75;4900489;28;127195;-62
2021/05/05 02:55:23;;;;;;;2.40;0.28;;;;;;;11.46;63.32;99129.28;4901455;28;101455;-63
2021/05/05 02:57:50;;;;;;;1.85;0.22;;;;;;;11.47;63.62;99133.56;4883771;28;108703;-59
2021/05/05 03:00:16;;;;;;;1.60;0.20;;;;;;;11.46;63.25;99129.28;4883114;28;103213;-64
2021/05/05 03:02:43;;;;;;;1.77;0.22;;;;;;;11.45;63.26;99133.88;4882995;28;116121;-59
2021/05/05 03:05:09;;;;;;;1.50;0.30;;;;;;;11.43;63.72;99133.38;4901416;28;98384;-62
2021/05/05 03:07:35;;;;;;;1.63;0.20;;;;;;;11.42;63.59;99129.09;4901562;28;100265;-59
2021/05/05 03:10:02;;;;;;;1.83;0.30;;;;;;;11.43;63.91;99133.38;4900709;28;127100;-59
2021/05/05 03:12:28;;;;;;;2.15;0.30;;;;;;;11.41;63.98;99122.09;4901146;28;98816;-59
2021/05/05 03:14:54;;;;;;;1.83;0.22;;;;;;;11.39;63.55;99126.97;4900339;28;111279;-63
2021/05/05 03:17:20;;;;;;;1.15;0.20;;;;;;;11.39;63.56;99118.88;4899835;28;121973;-63
2021/05/05 03:19:46;;;;;;;2.05;0.20;;;;;;;11.37;63.85;99123.81;4899010;28;103715;-59
2021/05/05 03:22:12;;;;;;;2.17;0.40;;;;;;;11.38;63.68;99128.09;4890713;28;117246;-62
2021/05/05 03:24:38;;;;;;;1.83;0.20;;;;;;;11.40;63.20;99133.19;4899540;28;127575;-60
2021/05/05 03:27:04;;;;;;;1.55;0.20;;;;;;;11.41;63.88;99134.78;4901157;28;97728;-63
2021/05/05 03:29:30;;;;;;;1.52;0.20;;;;;;;11.42;63.35;99125.59;4901187;28;109413;-59
2021/05/05 03:31:58;;;;;;;1.60;0.30;;;;;;;11.43;63.35;99129.88;4900484;28;127232;-60
2021/05/05 03:34:24;;;;;;;1.15;0.20;;;;;;;11.42;64.00;99129.09;4901777;28;98157;-59
2021/05/05 03:36:50;;;;;;;1.70;0.30;;;;;;;11.44;63.26;99129.59;4900638;28;97640;-63
2021/05/05 03:39:16;;;;;;;1.35;0.20;;;;;;;11.47;63.15;99125.47;4882383;28;118336;-60
2021/05/05 03:41:42;;;;;;;2.30;0.30;;;;;;;11.47;63.12;99136.25;4899963;28;128187;-59
2021/05/05 03:44:09;;;;;;;1.98;0.30;;;;;;;11.47;62.88;99131.66;4899978;28;127563;-62
2021/05/05 03:46:38;;;;;;;1.60;0.30;;;;;;;11.50;63.27;99141.84;4900869;28;97885;-59
2021/05/05 03:49:05;;;;;;;2.08;0.30;;;;;;;11.52;63.16;99138.84;4900496;28;98389;-61
2021/05/05 03:51:31;;;;;;;2.00;0.30;;;;;;;11.54;63.42;99123.94;4915711;28;98523;-59
2021/05/05 03:53:57;;;;;;;2.17;0.20;;;;;;;11.53;63.63;99122.34;4900246;28;127687;-62
2021/05/05 03:56:23;;;;;;;1.38;0.30;;;;;;;11.55;63.48;99114.75;4899858;28;121472;-63
2021/05/05 03:58:49;;;;;;;1.40;0.30;;;;;;;11.57;63.26;99117.16;4913338;28;127729;-60
2021/05/05 04:01:15;;;;;;;1.90;0.20;;;;;;;11.62;63.53;99116.22;4899951;28;111257;-60
2021/05/05 04:03:41;;;;;;;2.10;0.30;;;;;;;11.63;63.48;99113.22;4897542;28;126885;-60
2021/05/05 04:06:07;;;;;;;2.00;0.30;;;;;;;11.64;63.44;99112.13;4881907;28;121766;-62
2021/05/05 04:08:33;;;;;;;1.98;0.30;;;;;;;11.65;63.38;99118.31;4899018;28;99796;-60
2021/05/05 04:10:59;;;;;;;2.03;0.25;;;;;;;11.66;63.29;99115.28;4899723;28;127989;-60
2021/05/05 04:13:25;;;;;;;1.48;0.30;;;;;;;11.67;63.50;99116.09;4900722;28;98614;-60
2021/05/05 04:15:51;;;;;;;2.92;0.32;;;;;;;11.69;63.21;99116.59;4900051;28;97613;-63
2021/05/05 04:18:17;;;;;;;1.20;0.30;;;;;;;11.73;63.29;99120.28;4900035;28;112807;-60
2021/05/05 04:20:44;;;;;;;1.48;0.30;;;;;;;11.69;63.89;99122.00;4899196;28;128977;-60
2021/05/05 04:23:10;;;;;;;3.20;0.30;;;;;;;11.75;63.59;99126.97;4900330;28;106584;-63
2021/05/05 04:25:36;;;;;;;2.50;0.35;;;;;;;11.74;64.04;99128.06;4898983;28;106933;-60
2021/05/05 04:28:02;;;;;;;1.45;0.30;;;;;;;11.76;64.12;99122.38;4902431;28;127069;-60
2021/05/05 04:30:28;;;;;;;2.00;0.30;;;;;;;11.80;64.23;99126.84;4899603;28;116174;-62
2021/05/05 04:32:54;;;;;;;1.58;0.30;;;;;;;11.78;64.36;99130.94;4899565;28;128438;-63
2021/05/05 04:35:20;;;;;;;1.27;0.30;;;;;;;11.80;64.09;99123.34;4900475;28;99874;-63
2021/05/05 04:37:47;;;;;;;2.22;0.38;;;;;;;11.79;64.47;99125.25;4900560;28;98108;-64
2021/05/05 04:40:13;;;;;;;1.77;0.30;;;;;;;11.80;64.75;99126.03;4865834;28;98557;-60
2021/05/05 04:42:39;;;;;;;1.80;0.30;;;;;;;11.84;65.08;99128.97;4899552;28;127553;-60
2021/05/05 04:45:07;;;;;;;2.63;0.40;;;;;;;11.89;64.76;99115.31;4898724;28;122097;-60
2021/05/05 04:47:36;;;;;;;2.15;0.30;;;;;;;11.91;65.35;99118.53;4899042;28;98802;-60
2021/05/05 04:50:05;;;;;;;1.75;0.30;;;;;;;11.94;65.13;99118.69;4900578;28;117749;-60
2021/05/05 04:52:31;;;;;;;1.48;0.28;;;;;;;11.98;65.65;99125.06;4901441;28;98392;-61
2021/05/05 04:54:57;;;;;;;2.08;0.32;;;;;;;11.99;65.51;99121.28;4902935;28;114806;-60
2021/05/05 04:57:23;;;;;;;2.22;0.30;;;;;;;12.01;65.34;99127.16;4902412;28;113817;-60
2021/05/05 04:59:49;;;;;;;2.70;0.38;;;;;;;12.11;65.13;99128.81;4902903;28;119656;-60
2021/05/05 05:02:15;;;;;;;1.63;0.40;;;;;;;12.26;65.14;99119.50;4902312;28;120366;-60
2021/05/05 05:04:41;;;;;;;2.65;0.28;;;;;;;12.50;64.37;99130.75;4903518;28;107144;-60
2021/05/05 05:07:07;;;;;;;1.88;0.30;;;;;;;12.71;63.60;99122.88;4902425;28;99063;-62
2021/05/05 05:09:33;;;;;;;2.30;0.28;;;;;;;12.77;63.39;99129.72;4901967;28;126924;-60
2021/05/05 05:12:00;;;;;;;1.55;0.30;;;;;;;12.86;63.70;99132.47;4917544;28;121822;-61
2021/05/05 05:14:26;;;;;;;1.58;0.30;;;;;;;12.87;63.96;99123.22;4901184;28;97843;-63
2021/05/05 05:16:52;;;;;;;2.10;0.30;;;;;;;12.94;63.74;99142.50;4902190;28;118490;-61
2021/05/05 05:19:18;;;;;;;1.20;0.20;;;;;;;13.07;63.46;99126.44;4902589;28;119974;-63
2021/05/05 05:21:44;;;;;;;1.92;0.30;;;;;;;13.19;62.95;99130.13;4902301;28;125297;-63
2021/05/05 05:24:11;;;;;;;2.03;0.40;;;;;;;13.28;63.03;99135.56;4884625;28;121306;-60
2021/05/05 05:26:37;;;;;;;1.77;0.40;;;;;;;13.37;62.84;99144.50;4901346;28;128206;-60
2021/05/05 05:29:03;;;;;;;1.58;0.30;;;;;;;13.43;62.68;99142.44;4903143;28;98183;-60
2021/05/05 05:31:29;;;;;;;1.88;0.30;;;;;;;13.48;62.70;99147.72;4901987;28;98081;-61
2021/05/05 05:33:55;;;;;;;2.63;0.40;;;;;;;13.54;62.61;99156.44;4902541;28;123006;-60
2021/05/05 05:36:21;;;;;;;1.50;0.30;;;;;;;13.61;62.10;99154.88;4901768;28;98072;-63
2021/05/05 05:38:47;;;;;;;1.95;0.40;;;;;;;13.62;62.58;99151.03;4901934;28;127715;-63
2021/05/05 05:41:13;;;;;;;2.40;0.40;;;;;;;13.60;62.57;99150.56;4901469;28;126663;-63
2021/05/05 05:43:39;;;;;;;1.67;0.30;;;;;;;13.57;62.89;99155.81;4902836;28;122492;-63
2021/05/05 05:46:05;;;;;;;1.70;0.30;;;;;;;13.54;63.30;99162.66;4901506;28;128017;-60
2021/05/05 05:48:31;;;;;;;1.98;0.40;;;;;;;13.49;63.53;99155.50;4903055;28;98611;-63
2021/05/05 05:50:59;;;;;;;2.45;0.40;;;;;;;13.47;63.81;99155.00;4883806;28;127599;-63
2021/05/05 05:53:25;;;;;;;1.90;0.40;;;;;;;13.45;63.82;99156.47;4901463;28;98089;-60
2021/05/05 05:55:51;;;;;;;2.70;0.40;;;;;;;13.45;64.05;99157.25;4901124;28;120991;-60
2021/05/05 05:58:17;;;;;;;2.60;0.40;;;;;;;13.47;63.84;99157.72;4902398;28;128154;-61
2021/05/05 06:00:43;;;;;;;2.45;0.30;;;;;;;13.49;64.19;99163.63;4899822;28;115094;-60
2021/05/05 06:03:09;;;;;;;1.65;0.30;;;;;;;13.51;63.86;99166.00;4899642;28;122742;-61
2021/05/05 06:05:35;;;;;;;2.88;0.40;;;;;;;13.54;63.67;99162.66;4901275;28;127716;-60
2021/05/05 06:08:03;;;;;;;2.40;0.50;;;;;;;13.64;63.53;99158.84;4903261;28;98723;-62
2021/05/05 06:10:29;;;;;;;2.42;0.30;;;;;;;13.82;62.98;99154.22;4900748;28;99037;-60
2021/05/05 06:12:55;;;;;;;2.38;0.40;;;;;;;13.99;62.60;99157.72;4903500;28;98910;-63
2021/05/05 06:15:21;;;;;;;2.28;0.38;;;;;;;14.33;62.11;99153.31;4884053;28;107333;-63
2021/05/05 06:17:47;;;;;;;2.15;0.40;;;;;;;14.35;61.16;99167.34;4899706;28;127464;-61
2021/05/05 06:20:14;;;;;;;1.95;0.40;;;;;;;14.39;61.89;99151.25;4902326;28;128512;-61
2021/05/05 06:22:40;;;;;;;2.35;0.40;;;;;;;14.35;62.29;99158.44;4902869;28;97752;-62
2021/05/05 06:25:07;;;;;;;1.42;0.30;;;;;;;14.53;62.11;99159.19;4901708;28;127175;-63
2021/05/05 06:27:35;;;;;;;1.90;0.35;;;;;;;14.66;61.46;99155.47;4901597;28;99561;-63
2021/05/05 06:30:01;;;;;;;2.13;0.40;;;;;;;15.34;59.10;99144.56;4903372;28;99211;-61
2021/05/05 06:32:27;;;;;;;2.00;0.40;;;;;;;15.24;57.70;99148.44;4902562;28;107485;-63
2021/05/05 06:34:53;;;;;;;1.05;0.30;;;;;;;15.21;58.23;99149.91;4900339;28;98778;-61
2021/05/05 06:37:20;;;;;;;2.25;0.30;;;;;;;14.96;59.04;99143.50;4902004;28;98943;-63
2021/05/05 06:39:46;;;;;;;1.60;0.30;;;;;;;14.98;60.46;99141.28;4901929;28;110323;-61
2021/05/05 06:42:12;;;;;;;1.75;0.30;;;;;;;15.05;59.91;99148.06;4900434;28;103212;-63
2021/05/05 06:44:38;;;;;;;2.25;0.30;;;;;;;15.21;58.79;99149.13;4901450;28;128095;-63
2021/05/05 06:47:04;;;;;;;1.92;0.30;;;;;;;16.14;57.48;99136.19;4900891;28;128002;-61
2021/05/05 06:49:33;;;;;;;1.58;0.30;;;;;;;16.64;54.83;99137.88;4900808;28;127466;-61
2021/05/05 06:51:59;;;;;;;1.45;0.25;;;;;;;17.14;55.78;99148.41;4901860;28;97902;-64
2021/05/05 06:54:25;;;;;;;1.50;0.30;;;;;;;17.01;55.89;99144.09;4901966;28;110466;-61
2021/05/05 06:56:51;;;;;;;2.33;0.30;;;;;;;16.80;54.90;99152.41;4901664;28;98347;-63
2021/05/05 06:59:17;;;;;;;1.35;0.30;;;;;;;17.28;56.99;99150.78;4900726;28;126097;-64
2021/05/05 07:01:44;;;;;;;1.75;0.28;;;;;;;18.37;55.21;99137.06;4901313;28;120968;-64
2021/05/05 07:04:10;;;;;;;0.98;0.30;;;;;;;18.99;55.44;99142.88;4899082;28;126137;-61
2021/05/05 07:06:37;;;;;;;1.25;0.30;;;;;;;19.50;54.53;99146.34;4900144;28;98573;-61
2021/05/05 07:09:04;;;;;;;2.20;0.50;;;;;;;19.50;53.91;99137.38;4900639;28;98168;-61
2021/05/05 07:11:32;;;;;;;2.25;0.38;;;;;;;20.09;53.64;99145.22;4900426;28;99505;-61
2021/05/05 07:13:59;;;;;;;2.33;0.40;;;;;;;20.29;52.01;99137.75;4901894;28;98238;-64
2021/05/05 07:16:25;;;;;;;2.00;0.30;;;;;;;21.11;50.58;99143.00;4897387;28;128484;-64
2021/05/05 07:18:51;;;;;;;1.98;0.40;;;;;;;22.53;48.09;99141.16;4898659;28;128332;-61
2021/05/05 07:21:17;;;;;;;1.33;0.20;;;;;;;21.75;49.99;99155.63;4893889;28;122150;-64
2021/05/05 07:23:43;;;;;;;1.50;0.30;;;;;;;21.42;50.67;99159.13;4896161;28;128426;-64
2021/05/05 07:26:11;;;;;;;2.20;0.30;;;;;;;21.49;51.39;99148.22;4901218;28;98479;-61
2021/05/05 07:28:38;;;;;;;1.83;0.35;;;;;;;21.23;51.37;99161.97;4897191;28;97666;-61
2021/05/05 07:31:05;;;;;;;1.95;0.30;;;;;;;21.75;50.53;99158.34;4893700;28;97820;-61
2021/05/05 07:33:32;;;;;;;0.98;0.30;;;;;;;22.06;49.98;99164.59;4898193;28;98632;-60
2021/05/05 07:35:58;;;;;;;1.83;0.40;;;;;;;21.57;50.89;99160.06;4883988;28;98367;-61
2021/05/05 07:49:11;;;;;;;2.15;0.40;;;;;;;25.19;43.58;99163.78;4889225;28;97991;-64
2021/05/05 07:51:37;;;;;;;3.15;0.30;;;;;;;25.95;42.40;99176.94;4898462;28;99106;-61
2021/05/05 07:54:03;;;;;;;1.65;0.22;;;;;;;26.00;42.27;99183.25;4893732;28;128860;-64
2021/05/05 07:56:29;;;;;;;1.45;0.40;;;;;;;26.54;41.46;99178.22;4899138;28;107435;-61
2021/05/05 07:59:00;;;;;;;1.80;0.30;;;;;;;27.09;40.59;99194.72;4901198;28;98101;-62
2021/05/05 08:01:26;;;;;;;2.80;0.30;;;;;;;28.38;38.34;99180.22;4900525;28;97971;-65
2021/05/05 08:03:52;;;;;;;1.10;0.28;;;;;;;28.46;38.35;99194.75;4898452;28;127953;-64
2021/05/05 08:06:19;;;;;;;1.50;0.30;;;;;;;28.21;38.73;99188.75;4899854;28;129337;-64
2021/05/05 08:08:45;;;;;;;1.08;0.20;;;;;;;27.55;39.38;99184.38;4886894;28;97955;-61
2021/05/05 08:11:11;;;;;;;1.88;0.32;;;;;;;25.98;42.46;99189.16;4905253;28;98868;-62
2021/05/05 08:13:37;;;;;;;2.47;0.35;;;;;;;24.75;44.90;99198.03;4882273;28;128105;-61
2021/05/05 08:16:06;;;;;;;1.73;0.30;;;;;;;23.47;46.82;99190.13;4887284;28;98586;-63
2021/05/05 08:18:32;;;;;;;1.10;0.20;;;;;;;22.42;48.38;99203.41;4899531;28;98274;-61
2021/05/05 08:21:01;;;;;;;1.80;0.30;;;;;;;21.48;48.93;99217.94;4884177;28;98022;-61
2021/05/05 08:23:27;;;;;;;1.95;0.20;;;;;;;21.10;49.81;99213.41;4900891;28;98374;-64
2021/05/05 08:25:53;;;;;;;2.75;0.40;;;;;;;22.00;48.04;99204.47;4900866;28;98418;-62
2021/05/05 08:28:19;;;;;;;2.92;0.40;;;;;;;23.67;45.23;99199.69;4896377;28;97985;-64
2021/05/05 08:30:46;;;;;;;2.78;0.32;;;;;;;23.16;45.83;99195.03;4885836;28;121498;-61
2021/05/05 08:33:12;;;;;;;2.78;0.35;;;;;;;25.03;42.34;99204.72;4881529;28;98290;-61
2021/05/05 08:35:39;;;;;;;2.33;0.40;;;;;;;25.17;42.26;99182.69;4887616;28;98323;-62
2021/05/05 08:38:06;;;;;;;2.17;0.47;;;;;;;26.13;39.97;99201.72;4881172;28;97923;-61
2021/05/05 08:40:32;;;;;;;1.30;0.30;;;;;;;28.85;35.54;99194.13;4891377;28;98152;-64
2021/05/05 08:42:59;;;;;;;2.60;0.40;;;;;;;31.04;32.11;99191.19;4900151;28;98276;-62
2021/05/05 08:45:27;;;;;;;1.48;0.30;;;;;;;32.68;29.65;99182.13;4907364;28;98273;-62
2021/05/05 08:47:56;;;;;;;1.98;0.30;;;;;;;33.33;29.82;99205.91;4899769;28;97826;-63
2021/05/05 08:50:26;;;;;;;1.75;0.30;;;;;;;34.31;28.53;99197.09;4915068;28;97898;-65
2021/05/05 08:52:53;;;;;;;2.25;0.50;;;;;;;35.49;27.27;99205.44;4898043;28;118110;-62
2021/05/05 08:55:20;;;;;;;1.35;0.30;;;;;;;36.29;26.35;99199.38;4900988;28;99116;-61
2021/05/05 08:57:47;;;;;;;1.15;0.20;;;;;;;37.24;25.12;99188.72;4887637;28;116013;-64
2021/05/05 09:00:17;;;;;;;1.27;0.30;;;;;;;36.65;26.46;99194.09;4882152;28;110459;-61
2021/05/05 09:02:43;;;;;;;1.50;0.37;;;;;;;35.33;27.72;99192.50;4892804;28;112497;-61
2021/05/05 09:05:12;;;;;;;1.15;0.20;;;;;;;33.03;30.43;99185.78;4885591;28;124071;-64
2021/05/05 09:07:42;;;;;;;1.17;0.20;;;;;;;33.33;29.76;99177.97;4898088;28;98109;-61
2021/05/05 09:10:11;;;;;;;1.00;0.20;;;;;;;32.21;30.90;99169.63;4890359;28;97602;-60
2021/05/05 09:12:41;;;;;;;1.80;0.20;;;;;;;30.22;34.70;99173.72;4900551;28;98345;-61
2021/05/05 09:15:11;;;;;;;0.90;0.27;;;;;;;29.55;35.26;99176.66;4883972;28;108204;-63
2021/05/05 09:17:53;;;;;;;1.17;0.30;;;;;;;29.90;34.03;99177.13;4894774;28;98544;-63
2021/05/05 09:20:32;;;;;;;2.15;0.20;;;;;;;28.76;35.99;99166.13;4884703;28;97932;-60
2021/05/05 09:23:05;;;;;;;1.63;0.32;;;;;;;30.23;33.44;99164.16;4909129;28;98355;-63
2021/05/05 09:25:31;;;;;;;1.58;0.20;;;;;;;31.14;31.70;99175.44;4905096;28;111103;-60
2021/05/05 09:28:22;;;;;;;0.73;0.17;;;;;;;28.96;36.21;99165.41;4883865;28;98318;-60
2021/05/05 09:31:09;;;;;;;1.02;0.20;;;;;;;28.33;36.02;99166.00;4898856;28;98075;-60
2021/05/05 09:33:35;;;;;;;1.33;0.10;;;;;;;26.76;39.42;99176.06;4887501;28;114153;-63
2021/05/05 09:36:05;;;;;;;2.05;0.20;;;;;;;25.94;40.35;99177.38;4884798;28;98505;-62
2021/05/05 09:38:44;;;;;;;1.38;0.20;;;;;;;25.30;40.27;99170.06;4900226;28;98126;-62
2021/05/05 09:41:16;;;;;;;1.48;0.20;;;;;;;24.62;41.43;99172.84;4903831;28;98091;-63
2021/05/05 09:43:42;;;;;;;0.98;0.15;;;;;;;23.74;42.66;99177.72;4889246;28;98747;-60
2021/05/05 09:46:44;;;;;;;2.95;0.32;;;;;;;23.40;42.92;99173.59;4883809;28;99050;-62
2021/05/05 09:49:35;;;;;;;;;;;;;;;23.19;43.15;99175.03;4884186;28;97796;-62
2021/05/05 09:52:01;;;;;;;1.50;0.30;;;;;;;24.16;40.75;99161.72;4884376;28;97901;-62
2021/05/05 09:54:37;;;;;;;0.88;0.20;;;;;;;27.48;35.13;99167.91;4883450;28;98892;-63
2021/05/05 09:57:20;;;;;;;1.33;0.20;;;;;;;28.39;33.89;99167.13;4892757;28;98241;-59
2021/05/05 10:00:11;;;;;;;1.27;0.20;;;;;;;28.12;33.79;99169.88;4894712;28;97813;-59
2021/05/05 10:02:48;;;;;;;2.90;0.30;;;;;;;29.76;32.75;99174.66;4883617;28;98338;-63
2021/05/05 10:05:29;;;;;;;2.40;0.20;;;;;;;30.73;31.40;99174.13;4883343;28;119880;-60
2021/05/05 10:07:59;;;;;;;0.90;0.20;;;;;;;28.63;34.86;99181.81;4887878;28;97798;-63
2021/05/05 10:10:33;;;;;;;1.30;0.22;;;;;;;30.94;31.18;99177.56;4900783;28;98013;-60
2021/05/05 10:13:02;;;;;;;1.70;0.30;;;;;;;31.19;30.58;99163.78;4889906;28;97867;-63
2021/05/05 10:15:30;;;;;;;1.50;0.20;;;;;;;32.73;29.10;99165.59;4895905;28;98636;-60
2021/05/05 10:17:57;;;;;;;3.92;0.30;;;;;;;35.41;25.58;99180.56;4902937;28;98255;-60
2021/05/05 10:20:25;;;;;;;1.00;0.20;;;;;;;36.68;24.37;99188.31;4898100;28;117523;-64
2021/05/05 10:22:54;;;;;;;1.60;0.20;;;;;;;34.77;27.12;99176.91;4887106;28;97711;-60
2021/05/05 10:25:22;;;;;;;1.45;0.20;;;;;;;34.93;27.63;99174.59;4893107;28;101120;-63
2021/05/05 10:27:49;;;;;;;1.83;0.30;;;;;;;35.63;25.87;99160.00;4898204;28;99029;-63
2021/05/05 10:30:20;;;;;;;1.45;0.30;;;;;;;35.62;25.93;99155.66;4895302;28;120828;-64
2021/05/05 10:32:47;;;;;;;;;;;;;;;35.40;26.09;99167.78;4894340;28;99071;-63
2021/05/05 10:35:21;;;;;;;3.30;0.25;;;;;;;36.04;24.86;99174.53;4890577;28;98070;-61
2021/05/05 10:37:59;;;;;;;2.70;0.20;;;;;;;34.32;27.57;99167.91;4902114;28;118749;-60
2021/05/05 10:40:28;;;;;;;2.63;0.20;;;;;;;31.35;32.32;99173.34;4895721;28;98065;-60
2021/05/05 10:43:02;;;;;;;2.42;0.40;;;;;;;29.06;34.92;99181.13;4900610;28;114371;-60
2021/05/05 10:45:38;;;;;;;2.55;0.20;;;;;;;27.56;36.54;99175.69;4891850;28;99180;-63
2021/05/05 10:48:15;;;;;;;2.47;0.30;;;;;;;28.93;34.03;99166.28;4896259;28;104908;-62
2021/05/05 10:50:57;;;;;;;2.75;0.30;;;;;;;32.73;27.90;99176.75;4892377;28;115097;-63
2021/05/05 10:53:44;;;;;;;3.45;0.30;;;;;;;35.16;25.11;99183.66;4895160;28;99273;-60
2021/05/05 10:56:24;;;;;;;1.52;0.20;;;;;;;36.18;23.79;99187.91;4897393;28;99049;-60
2021/05/05 10:59:08;;;;;;;2.63;0.30;;;;;;;37.34;22.91;99187.41;4897269;28;98276;-63
2021/05/05 11:01:39;;;;;;;1.75;0.20;;;;;;;37.70;22.09;99186.31;4902692;28;97874;-63
2021/05/05 11:04:15;;;;;;;1.20;0.20;;;;;;;37.03;23.97;99185.78;4902279;28;97686;-64
2021/05/05 11:06:41;;;;;;;2.10;0.20;;;;;;;36.76;24.04;99175.47;4901758;28;99256;-64
2021/05/05 11:09:13;;;;;;;3.03;0.25;;;;;;;36.85;23.64;99169.81;4891880;28;98276;-64
2021/05/05 11:11:47;;;;;;;1.40;0.20;;;;;;;37.47;23.15;99164.69;4889738;28;98438;-64
2021/05/05 11:14:30;;;;;;;0.98;0.32;;;;;;;37.47;23.47;99157.03;4884628;28;97860;-64
2021/05/05 11:17:00;;;;;;;0.85;0.10;;;;;;;36.75;24.04;99159.13;4892346;28;99172;-61
2021/05/05 11:19:41;;;;;;;1.30;0.20;;;;;;;36.30;25.20;99153.25;4881832;28;97935;-61
2021/05/05 11:22:22;;;;;;;;;;;;;;;34.24;28.04;99152.66;4898487;28;98342;-63
2021/05/05 11:24:50;;;;;;;1.55;0.20;;;;;;;31.81;31.40;99158.09;4902679;28;97897;-60
2021/05/05 11:27:17;;;;;;;1.67;0.20;;;;;;;29.96;32.87;99180.97;4892510;28;98442;-60
2021/05/05 11:29:50;;;;;;;1.77;0.28;;;;;;;28.40;34.34;99223.34;4893601;28;97958;-60
2021/05/05 11:32:21;;;;;;;2.95;0.30;;;;;;;26.96;35.75;99262.78;4891386;28;98086;-63
2021/05/05 11:34:48;;;;;;;2.97;0.20;;;;;;;25.89;36.80;99277.13;4890424;28;97779;-63
2021/05/05 11:37:22;;;;;;;3.13;0.30;;;;;;;24.78;38.41;99271.63;4893961;28;128119;-63
2021/05/05 11:39:51;;;;;;;2.20;0.25;;;;;;;23.91;39.89;99257.97;4896547;28;98625;-63
2021/05/05 11:42:20;;;;;;;3.97;0.22;;;;;;;23.32;41.60;99232.44;4890588;28;98227;-62
2021/05/05 11:44:48;;;;;;;2.92;0.20;;;;;;;23.00;42.81;99244.00;4894831;28;97883;-62